Time;durP1;ratioP1;P1;durP2;ratioP2;P2;SDS_P1;SDS_P2;PMS_P1;PMS_P2;Temp;Humidity;BMP_temperature;BMP_pressure;BME280_temperature;BME280_humidity;BME280_pressure;Samples;Min_cycle;Max_cycle;Signal;HPM_P1;HPM_P2
2022/04/18 00:02:11;;;;;;;5.15;2.60;;;;;;;3.76;77.87;100498.44;4925441;29;20046;-86
2022/04/18 00:04:38;;;;;;;3.78;2.40;;;;;;;3.85;78.19;100500.38;4942740;29;20050;-89
2022/04/18 00:07:06;;;;;;;;;;;;;;;3.83;78.99;100486.34;4958278;29;20471;-87
2022/04/18 00:09:33;;;;;;;5.15;2.80;;;;;;;3.67;78.45;100486.69;4935130;29;19934;-85
2022/04/18 00:11:59;;;;;;;4.25;2.47;;;;;;;3.78;78.09;100489.38;4907254;29;20411;-86
2022/04/18 00:14:28;;;;;;;3.80;2.60;;;;;;;3.74;78.45;100481.75;4922811;29;20031;-86
2022/04/18 00:17:15;;;;;;;4.05;2.80;;;;;;;3.82;77.90;100495.31;4957283;29;20426;-86
2022/04/18 00:19:42;;;;;;;4.03;2.70;;;;;;;3.81;77.73;100493.59;4927556;29;20039;-85
2022/04/18 00:22:07;;;;;;;4.97;3.08;;;;;;;3.84;77.90;100497.81;4924870;29;20039;-84
2022/04/18 00:24:35;;;;;;;4.35;3.08;;;;;;;3.81;78.51;100494.44;4910233;29;20067;-85
2022/04/18 00:27:01;;;;;;;4.50;2.92;;;;;;;3.75;78.15;100489.63;4935014;29;20147;-89
2022/04/18 00:29:27;;;;;;;4.65;2.75;;;;;;;3.78;77.52;100477.88;4903694;29;20059;-84
2022/04/18 00:31:53;;;;;;;;;;;;;;;3.80;78.15;100484.78;4906433;28;20040;-84
2022/04/18 00:34:20;;;;;;;4.85;3.20;;;;;;;3.63;78.95;100474.63;4930834;29;19919;-85
2022/04/18 00:36:54;;;;;;;;;;;;;;;3.72;78.99;100486.34;4917094;29;20205;-85
2022/04/18 00:39:21;;;;;;;4.95;3.00;;;;;;;3.70;79.13;100474.97;4935371;29;19915;-84
2022/04/18 00:41:48;;;;;;;4.70;3.30;;;;;;;3.76;79.52;100480.66;4945820;29;20512;-84
2022/04/18 00:44:15;;;;;;;5.90;3.60;;;;;;;3.78;78.94;100483.22;4928194;29;20059;-83
2022/04/18 00:46:40;;;;;;;5.65;3.47;;;;;;;3.77;78.85;100484.19;4919352;29;20158;-83
2022/04/18 00:49:06;;;;;;;5.07;3.33;;;;;;;3.65;77.87;100456.72;4927904;29;20147;-84
2022/04/18 00:51:32;;;;;;;5.63;3.70;;;;;;;3.57;78.63;100433.41;4904393;29;20046;-86
2022/04/18 00:53:58;;;;;;;4.53;3.33;;;;;;;3.68;79.63;100461.00;4937140;29;20141;-85
2022/04/18 00:56:26;;;;;;;5.75;3.92;;;;;;;3.68;79.01;100448.53;4909411;29;20056;-84
2022/04/18 00:58:52;;;;;;;6.13;3.85;;;;;;;3.72;78.70;100452.66;4942720;28;20134;-85
2022/04/18 01:01:29;;;;;;;6.35;4.10;;;;;;;3.72;79.21;100457.97;4937252;29;20496;-84
2022/04/18 01:03:55;;;;;;;5.70;3.92;;;;;;;3.68;78.32;100447.69;4925227;29;20039;-86
2022/04/18 01:06:21;;;;;;;5.88;4.10;;;;;;;3.64;78.88;100440.91;4917167;29;20042;-84
2022/04/18 01:08:48;;;;;;;6.20;4.13;;;;;;;3.45;79.36;100418.44;4907369;29;20552;-83
2022/04/18 01:11:15;;;;;;;5.60;3.70;;;;;;;3.51;79.21;100417.09;4916047;29;20290;-83
2022/04/18 01:13:47;;;;;;;7.20;4.07;;;;;;;3.58;79.42;100429.81;4934154;28;20547;-85
2022/04/18 01:16:40;;;;;;;6.57;4.28;;;;;;;3.60;79.05;100432.31;4940045;29;20032;-85
2022/04/18 01:19:09;;;;;;;5.80;3.90;;;;;;;3.49;79.91;100432.31;4937560;29;20471;-86
2022/04/18 01:21:36;;;;;;;5.75;3.85;;;;;;;3.48;79.63;100422.66;4902359;29;20027;-85
2022/04/18 01:28:58;;;;;;;6.18;3.90;;;;;;;3.46;79.55;100435.22;4921351;29;20031;-84
2022/04/18 01:29:38;;;;;;;4.70;2.95;;;;;;;3.59;79.08;100434.16;4927753;29;20118;-87
2022/04/18 01:32:20;;;;;;;5.20;3.38;;;;;;;3.40;79.79;100423.28;4939614;29;20094;-88
2022/04/18 01:35:00;;;;;;;5.57;3.20;;;;;;;3.49;80.22;100445.63;4937787;29;20498;-86
2022/04/18 01:37:59;;;;;;;5.32;3.35;;;;;;;3.53;80.30;100436.44;4954530;29;20074;-85
2022/04/18 01:40:25;;;;;;;4.75;3.13;;;;;;;3.43;79.61;100424.84;4935499;29;20050;-86
2022/04/18 01:42:51;;;;;;;4.10;2.78;;;;;;;3.40;79.70;100425.94;4950900;29;20035;-86
2022/04/18 01:45:18;;;;;;;4.40;2.80;;;;;;;3.47;79.22;100421.84;4936033;29;20074;-86
2022/04/18 01:47:45;;;;;;;5.82;2.70;;;;;;;3.52;80.01;100430.28;4936118;29;20361;-86
2022/04/18 01:50:12;;;;;;;4.78;2.90;;;;;;;3.53;80.51;100437.28;4952395;29;20043;-86
2022/04/18 01:52:39;;;;;;;3.92;2.75;;;;;;;3.59;80.28;100441.28;4955389;28;20041;-85
2022/04/18 01:55:08;;;;;;;3.53;2.42;;;;;;;3.55;79.49;100427.38;4925659;29;20606;-85
2022/04/18 01:57:35;;;;;;;3.88;2.35;;;;;;;3.57;79.89;100420.13;4902215;29;20059;-86
2022/04/18 02:00:09;;;;;;;3.97;2.30;;;;;;;3.65;79.44;100426.66;4935941;29;20027;-85
2022/04/18 02:02:35;;;;;;;3.72;2.45;;;;;;;3.36;80.68;100396.09;4955104;28;20031;-85
2022/04/18 02:05:02;;;;;;;3.30;2.20;;;;;;;3.35;79.82;100386.44;4935656;29;20472;-85
2022/04/18 02:07:29;;;;;;;4.22;2.50;;;;;;;3.45;80.29;100418.44;4919205;29;20078;-87
2022/04/18 02:09:55;;;;;;;4.22;2.40;;;;;;;3.48;79.76;100428.00;4920919;29;20373;-87
2022/04/18 02:12:21;;;;;;;3.67;2.30;;;;;;;3.33;80.03;100392.84;4932328;28;20035;-85
2022/04/18 02:14:47;;;;;;;4.50;3.10;;;;;;;3.28;79.84;100384.41;4949757;28;20039;-87
2022/04/18 02:17:13;;;;;;;4.70;2.70;;;;;;;3.43;80.39;100412.41;4941208;29;20400;-88
2022/04/18 02:19:44;;;;;;;4.75;2.95;;;;;;;3.47;80.70;100416.50;4902397;29;20036;-86
2022/04/18 02:22:18;;;;;;;4.30;2.67;;;;;;;3.43;79.47;100398.28;4925755;28;20034;-85
2022/04/18 02:24:45;;;;;;;4.30;3.08;;;;;;;3.35;80.09;100401.53;4957197;28;20030;-85
2022/04/18 02:27:13;;;;;;;4.38;2.92;;;;;;;3.30;80.40;100398.38;4940573;28;20035;-85
2022/04/18 02:29:38;;;;;;;5.00;3.05;;;;;;;3.36;80.44;100400.56;4925556;28;20031;-87
2022/04/18 02:34:51;;;;;;;5.43;3.00;;;;;;;3.29;80.14;100388.72;4982384;28;20050;-88
2022/04/18 02:37:17;;;;;;;4.60;3.13;;;;;;;3.09;80.39;100353.97;4921182;29;20047;-88
2022/04/18 02:39:48;;;;;;;4.30;2.95;;;;;;;3.30;79.80;100382.44;4919395;29;20035;-87
2022/04/18 02:42:15;;;;;;;4.95;3.17;;;;;;;3.29;80.43;100392.22;4943045;29;20505;-86
2022/04/18 02:44:45;;;;;;;4.72;3.10;;;;;;;3.31;79.70;100392.13;4921328;29;20077;-87
2022/04/18 02:47:13;;;;;;;4.78;3.20;;;;;;;3.26;80.88;100386.31;4920454;28;20035;-89
2022/04/18 02:49:39;;;;;;;4.80;3.20;;;;;;;3.19;80.34;100371.84;4934369;29;20118;-86
2022/04/18 02:52:05;;;;;;;5.23;3.57;;;;;;;3.29;80.87;100376.28;4919675;29;20515;-85
2022/04/18 02:54:32;;;;;;;5.03;3.53;;;;;;;3.32;80.02;100381.34;4894380;29;20050;-85
2022/04/18 02:57:01;;;;;;;4.15;2.92;;;;;;;3.33;80.24;100385.72;4916707;29;20059;-86
2022/04/18 02:59:31;;;;;;;6.15;3.03;;;;;;;3.33;79.75;100379.56;4918175;29;20031;-85
2022/04/18 03:01:57;;;;;;;4.32;2.92;;;;;;;3.24;80.47;100369.66;4936718;29;20031;-85
2022/04/18 03:04:23;;;;;;;4.43;3.30;;;;;;;3.23;80.64;100387.41;4935750;28;20053;-86
2022/04/18 03:06:49;;;;;;;5.53;3.28;;;;;;;3.28;80.47;100381.75;4919780;29;20047;-86
2022/04/18 03:09:15;;;;;;;5.33;3.40;;;;;;;3.25;80.47;100384.63;4935776;29;20039;-86
2022/04/18 03:11:42;;;;;;;11.35;5.45;;;;;;;3.25;80.46;100392.59;4935314;29;20429;-87
2022/04/18 03:14:08;;;;;;;8.63;4.65;;;;;;;3.26;81.12;100395.13;4955297;28;20039;-87
2022/04/18 03:16:34;;;;;;;4.40;2.75;;;;;;;3.26;80.08;100381.84;4959875;28;20464;-84
2022/04/18 03:19:01;;;;;;;;;;;;;;;3.31;80.40;100360.22;4955966;28;20125;-86
2022/04/18 03:21:28;;;;;;;4.10;2.70;;;;;;;3.22;80.04;100363.63;4927238;29;19923;-87
2022/04/18 03:24:01;;;;;;;4.72;2.90;;;;;;;3.22;80.61;100376.91;4937244;29;20070;-87
2022/04/18 03:26:29;;;;;;;4.22;2.90;;;;;;;3.23;80.57;100373.25;4912299;29;20126;-87
2022/04/18 03:28:55;;;;;;;4.25;2.90;;;;;;;3.27;80.42;100382.69;4921160;29;20563;-86
2022/04/18 03:31:21;;;;;;;4.60;2.88;;;;;;;3.36;80.31;100389.94;4923303;29;20042;-88
2022/04/18 03:33:46;;;;;;;6.75;3.10;;;;;;;3.35;80.66;100385.59;4938877;28;20515;-87
2022/04/18 03:41:51;;;;;;;4.22;2.83;;;;;;;3.34;80.26;100394.53;4937919;29;20470;-87
2022/04/18 03:44:21;;;;;;;4.10;2.83;;;;;;;3.36;80.48;100389.94;4958143;28;20420;-88
2022/04/18 03:46:46;;;;;;;4.80;2.90;;;;;;;3.36;80.72;100387.28;4951029;29;20511;-87
2022/04/18 03:49:12;;;;;;;4.55;3.22;;;;;;;3.38;80.82;100395.97;4928440;28;20039;-88
2022/04/18 03:51:38;;;;;;;4.95;3.15;;;;;;;3.35;80.51;100378.47;4937199;29;20141;-84
2022/04/18 03:54:06;;;;;;;6.32;4.13;;;;;;;3.31;79.78;100358.41;4922975;29;20039;-88
2022/04/18 03:56:32;;;;;;;4.72;2.90;;;;;;;3.48;79.89;100372.16;4946502;29;20078;-86
2022/04/18 03:58:59;;;;;;;5.20;3.10;;;;;;;3.43;79.49;100369.03;4919739;29;20038;-86
2022/04/18 04:01:30;;;;;;;4.68;2.75;;;;;;;3.53;79.23;100383.28;4952292;29;20050;-86
2022/04/18 04:03:56;;;;;;;5.55;3.00;;;;;;;3.50;78.80;100373.72;4955093;29;20133;-85
2022/04/18 04:06:22;;;;;;;3.90;2.70;;;;;;;3.53;78.41;100377.97;4939009;29;20485;-87
2022/04/18 04:08:48;;;;;;;4.50;2.92;;;;;;;3.57;78.46;100366.97;4920200;29;20138;-86
2022/04/18 04:11:21;;;;;;;4.65;3.15;;;;;;;3.38;78.73;100346.31;4925949;29;20031;-87
2022/04/18 04:13:47;;;;;;;6.32;3.22;;;;;;;3.59;79.25;100383.63;4953906;28;20043;-88
2022/04/18 04:16:13;;;;;;;5.17;3.03;;;;;;;3.65;78.73;100378.78;4919871;29;20043;-84
2022/04/18 04:18:39;;;;;;;4.47;3.20;;;;;;;3.59;78.35;100349.06;4938392;29;20204;-84
2022/04/18 04:21:05;;;;;;;7.35;3.47;;;;;;;3.75;78.42;100345.19;4953619;28;20137;-85
2022/04/18 04:23:30;;;;;;;3.70;2.70;;;;;;;3.78;77.82;100355.56;4922351;29;20581;-83
2022/04/18 04:25:57;;;;;;;4.37;2.80;;;;;;;3.81;78.20;100350.00;4945537;28;20712;-84
2022/04/18 04:28:23;;;;;;;5.30;3.42;;;;;;;3.76;78.78;100350.34;4955748;28;20070;-85
2022/04/18 04:30:48;;;;;;;4.97;2.90;;;;;;;3.85;79.13;100370.06;4941768;29;20031;-85
2022/04/18 04:33:15;;;;;;;4.57;3.10;;;;;;;3.77;78.34;100354.72;4937185;29;20042;-86
2022/04/18 04:35:41;;;;;;;4.38;2.80;;;;;;;3.78;78.39;100388.31;4950621;29;20023;-83
2022/04/18 04:38:07;;;;;;;4.50;2.97;;;;;;;3.78;78.44;100379.50;4940480;29;20464;-84
2022/04/18 04:40:33;;;;;;;5.87;3.13;;;;;;;3.70;78.93;100363.31;4934377;29;20106;-86
2022/04/18 04:42:59;;;;;;;4.80;2.97;;;;;;;3.76;78.61;100374.28;4947131;28;20015;-88
2022/04/18 04:45:28;;;;;;;4.68;2.92;;;;;;;3.87;78.58;100384.06;4938685;29;20035;-85
2022/04/18 04:47:55;;;;;;;4.97;2.80;;;;;;;3.89;78.22;100394.59;4928782;29;20523;-85
2022/04/18 04:50:23;;;;;;;4.50;2.78;;;;;;;3.83;78.42;100400.41;4924021;29;20044;-84
2022/04/18 04:52:50;;;;;;;5.35;3.17;;;;;;;3.86;78.18;100382.38;4953095;28;20097;-86
2022/04/18 04:55:19;;;;;;;4.32;2.92;;;;;;;3.91;77.84;100372.22;4927683;29;20050;-85
2022/04/18 04:57:45;;;;;;;5.35;3.20;;;;;;;3.91;77.88;100374.88;4938508;29;20523;-87
2022/04/18 05:00:11;;;;;;;4.93;3.20;;;;;;;3.93;77.94;100370.28;4913678;29;20027;-89
2022/04/18 05:02:37;;;;;;;4.28;2.88;;;;;;;3.85;77.50;100363.91;4959208;28;20267;-83
2022/04/18 05:05:03;;;;;;;5.23;3.07;;;;;;;3.84;78.44;100347.09;4951723;29;20035;-85
2022/04/18 05:07:31;;;;;;;5.40;3.25;;;;;;;4.11;78.22;100377.72;4948410;28;20110;-87
2022/04/18 05:09:57;;;;;;;4.30;2.72;;;;;;;4.03;77.08;100375.69;4932633;28;20109;-86
2022/04/18 05:12:28;;;;;;;4.47;2.80;;;;;;;3.94;76.81;100379.94;4948674;29;20464;-85
2022/04/18 05:14:57;;;;;;;6.22;3.08;;;;;;;4.06;77.29;100385.25;4943486;28;20129;-85
2022/04/18 05:17:22;;;;;;;3.88;2.70;;;;;;;3.99;77.11;100404.34;4942985;28;20031;-87
2022/04/18 05:19:48;;;;;;;5.07;3.20;;;;;;;4.00;77.72;100408.72;4926235;29;20042;-87
2022/04/18 05:22:14;;;;;;;5.07;3.20;;;;;;;4.10;77.78;100407.97;4954269;28;20282;-88
2022/04/18 05:24:39;;;;;;;4.43;3.03;;;;;;;4.11;77.99;100405.16;4940039;29;20031;-87
2022/04/18 05:27:05;;;;;;;4.67;3.07;;;;;;;4.19;77.46;100415.16;4920225;28;20481;-85
2022/04/18 05:29:31;;;;;;;8.60;6.13;;;;;;;4.13;77.41;100397.06;4922440;29;20035;-88
2022/04/18 05:31:56;;;;;;;7.05;4.88;;;;;;;4.34;77.39;100416.59;4908435;29;20122;-87
2022/04/18 05:34:22;;;;;;;4.87;3.43;;;;;;;4.20;76.47;100411.56;4941375;28;20583;-86
2022/04/18 05:36:49;;;;;;;5.97;4.00;;;;;;;4.11;77.59;100399.84;4954006;28;20790;-86
2022/04/18 05:39:17;;;;;;;6.70;5.00;;;;;;;4.14;78.10;100425.34;4923574;28;20039;-86
2022/04/18 05:41:43;;;;;;;6.82;4.30;;;;;;;4.06;77.49;100425.16;4938924;29;20039;-86
2022/04/18 05:44:08;;;;;;;6.28;4.13;;;;;;;4.12;76.81;100448.56;4947315;28;20039;-85
2022/04/18 05:46:34;;;;;;;6.93;4.30;;;;;;;4.15;76.18;100440.34;4939575;29;20035;-86
2022/04/18 05:49:01;;;;;;;11.05;5.10;;;;;;;4.12;77.35;100432.59;4926469;29;20043;-86
2022/04/18 05:51:26;;;;;;;6.15;4.00;;;;;;;4.22;76.16;100445.06;4948506;28;20043;-88
2022/04/18 05:53:52;;;;;;;6.37;4.50;;;;;;;4.21;76.91;100439.84;4941321;29;20543;-87
2022/04/18 05:56:18;;;;;;;6.45;4.60;;;;;;;4.33;76.64;100448.63;4935251;29;20821;-86
2022/04/18 05:58:45;;;;;;;5.88;4.15;;;;;;;4.26;76.01;100453.66;4954620;28;20404;-88
2022/04/18 06:01:12;;;;;;;10.63;4.78;;;;;;;4.35;76.01;100460.84;4937802;29;20046;-87
2022/04/18 06:03:38;;;;;;;6.18;3.90;;;;;;;4.39;75.33;100462.28;4951818;28;20047;-85
2022/04/18 06:06:06;;;;;;;5.50;3.95;;;;;;;4.29;75.45;100461.38;4923974;29;20058;-89
2022/04/18 06:08:33;;;;;;;6.43;4.13;;;;;;;4.18;76.66;100469.38;4933307;28;20039;-87
2022/04/18 06:11:00;;;;;;;5.97;3.95;;;;;;;4.02;77.19;100449.31;4936275;29;20121;-87
2022/04/18 06:13:27;;;;;;;6.30;4.20;;;;;;;4.14;76.41;100438.66;4923633;28;20041;-88
2022/04/18 06:15:54;;;;;;;6.68;4.32;;;;;;;4.11;76.85;100447.72;4942203;29;20140;-84
2022/04/18 06:18:22;;;;;;;7.60;4.50;;;;;;;4.27;76.88;100462.47;4961151;28;20081;-84
2022/04/18 06:20:53;;;;;;;7.93;4.45;;;;;;;4.19;75.93;100473.72;4933063;29;20043;-90
2022/04/18 06:23:20;;;;;;;9.07;5.07;;;;;;;4.27;76.95;100468.63;4952763;28;20031;-87
2022/04/18 06:25:49;;;;;;;9.98;6.70;;;;;;;4.11;77.67;100438.91;4928098;29;20109;-88
2022/04/18 06:28:16;;;;;;;7.65;4.30;;;;;;;4.07;76.69;100437.47;4940069;28;20050;-80
2022/04/18 06:30:42;;;;;;;5.60;3.63;;;;;;;4.47;76.85;100471.47;4929802;29;20066;-83
2022/04/18 06:33:11;;;;;;;7.07;4.07;;;;;;;4.50;75.46;100474.72;4911526;29;20070;-86
2022/04/18 06:35:36;;;;;;;6.90;4.18;;;;;;;4.56;75.83;100473.38;4942580;28;20039;-89
2022/04/18 06:38:02;;;;;;;6.15;3.88;;;;;;;4.41;75.28;100455.03;4903077;29;20035;-83
2022/04/18 06:40:29;;;;;;;6.07;3.60;;;;;;;4.58;75.54;100474.09;4938311;28;20049;-81
2022/04/18 06:42:55;;;;;;;5.78;3.85;;;;;;;4.59;76.18;100473.13;4952282;28;20043;-85
2022/04/18 06:45:24;;;;;;;5.10;3.83;;;;;;;4.74;75.84;100477.16;4945319;28;20116;-85
2022/04/18 06:47:49;;;;;;;10.98;4.32;;;;;;;4.81;75.24;100470.34;4969705;28;20492;-86
2022/04/18 06:50:15;;;;;;;7.78;4.60;;;;;;;4.83;75.54;100479.06;4931544;28;20037;-88
2022/04/18 06:52:49;;;;;;;9.18;5.05;;;;;;;4.80;76.45;100474.00;4926177;28;20049;-88
2022/04/18 06:55:15;;;;;;;6.57;4.25;;;;;;;4.98;75.34;100486.75;4938227;29;20020;-86
2022/04/18 06:57:45;;;;;;;6.25;4.13;;;;;;;4.82;75.74;100474.72;4899549;28;20054;-88
2022/04/18 07:00:12;;;;;;;6.70;4.53;;;;;;;4.82;75.69;100474.72;4952347;28;20062;-89
2022/04/18 07:02:47;;;;;;;7.50;4.30;;;;;;;4.84;74.90;100459.44;4938416;28;20039;-86
2022/04/18 07:05:17;;;;;;;6.50;4.40;;;;;;;4.85;75.40;100478.97;4954672;28;20043;-86
2022/04/18 07:08:07;;;;;;;8.90;5.28;;;;;;;4.88;75.66;100467.19;4943437;28;20106;-93
2022/04/18 07:10:33;;;;;;;7.18;4.30;;;;;;;4.95;75.30;100485.19;4965560;28;20041;-87
2022/04/18 07:13:05;;;;;;;6.15;4.03;;;;;;;4.79;75.36;100464.31;4935375;28;20122;-84
2022/04/18 07:15:32;;;;;;;6.30;4.28;;;;;;;4.78;75.38;100461.78;4945795;28;20043;-85
2022/04/18 07:17:58;;;;;;;6.40;4.38;;;;;;;4.88;75.99;100465.38;4938339;28;20124;-83
2022/04/18 07:20:24;;;;;;;5.38;3.80;;;;;;;4.96;75.22;100473.53;4939735;29;20042;-83
2022/04/18 07:22:49;;;;;;;5.43;3.70;;;;;;;4.95;75.57;100489.69;4925190;28;20047;-85
2022/04/18 07:25:15;;;;;;;5.50;3.65;;;;;;;4.95;74.79;100479.03;4932053;28;20043;-83
2022/04/18 07:27:41;;;;;;;5.32;3.40;;;;;;;4.76;74.22;100461.91;4938536;28;20127;-84
2022/04/18 07:30:07;;;;;;;6.07;4.00;;;;;;;4.84;75.07;100478.09;4928804;29;20044;-83
2022/04/18 07:32:40;;;;;;;5.85;3.40;;;;;;;5.05;73.42;100490.59;4922267;28;20057;-82
2022/04/18 07:35:09;;;;;;;5.88;3.38;;;;;;;5.04;74.11;100475.59;4921625;29;20535;-84
2022/04/18 07:37:35;;;;;;;6.68;3.38;;;;;;;5.20;73.32;100477.78;4941321;28;20027;-82
2022/04/18 07:40:01;;;;;;;7.78;3.22;;;;;;;5.19;74.48;100463.59;4950299;29;20519;-84
2022/04/18 07:42:29;;;;;;;4.78;3.20;;;;;;;5.33;73.61;100457.09;4952410;28;20113;-85
2022/04/18 07:44:58;;;;;;;5.47;3.70;;;;;;;5.53;74.84;100462.53;4931980;29;20069;-86
2022/04/18 07:47:24;;;;;;;4.53;2.95;;;;;;;5.61;72.23;100450.22;4908104;28;20035;-85
2022/04/18 07:49:49;;;;;;;5.57;3.75;;;;;;;5.56;74.49;100456.94;4946123;28;20030;-85
2022/04/18 07:52:15;;;;;;;5.07;3.67;;;;;;;5.61;73.08;100468.88;4946476;28;20167;-85
2022/04/18 07:54:43;;;;;;;5.40;3.27;;;;;;;5.55;71.73;100463.22;4928748;28;20384;-85
2022/04/18 07:57:09;;;;;;;4.53;3.10;;;;;;;5.34;72.94;100473.91;4974058;28;20561;-85
2022/04/18 07:59:34;;;;;;;5.63;3.30;;;;;;;5.06;73.95;100437.16;4929972;28;20042;-86
2022/04/18 08:02:09;;;;;;;4.93;3.17;;;;;;;5.13;72.22;100461.47;4974806;28;20060;-84
2022/04/18 08:04:39;;;;;;;4.65;3.08;;;;;;;5.20;73.01;100462.66;4950978;28;20546;-84
2022/04/18 08:07:06;;;;;;;5.55;3.70;;;;;;;5.20;73.77;100478.63;4921798;29;20031;-85
2022/04/18 08:09:32;;;;;;;6.18;3.78;;;;;;;5.29;73.69;100483.19;4933821;28;20033;-84
2022/04/18 08:11:57;;;;;;;6.35;4.00;;;;;;;5.17;74.14;100468.22;4955270;29;20042;-84
2022/04/18 08:14:23;;;;;;;5.70;4.20;;;;;;;5.31;74.02;100495.53;4939754;28;20087;-85
2022/04/18 08:16:48;;;;;;;7.13;3.97;;;;;;;5.14;74.09;100467.66;4957184;28;20089;-85
2022/04/18 08:19:14;;;;;;;5.53;3.77;;;;;;;5.03;74.43;100477.41;4950524;28;20286;-84
2022/04/18 08:21:40;;;;;;;5.93;4.20;;;;;;;5.00;74.06;100466.16;4913602;29;20605;-85
2022/04/18 08:24:06;;;;;;;5.07;3.63;;;;;;;5.23;73.19;100485.53;4931986;28;20542;-84
2022/04/18 08:26:31;;;;;;;6.30;4.30;;;;;;;5.05;74.71;100506.56;4938229;29;20279;-84
2022/04/18 08:28:57;;;;;;;6.65;4.40;;;;;;;4.94;74.29;100479.97;4946180;28;20031;-85
2022/04/18 08:31:22;;;;;;;6.90;4.10;;;;;;;5.10;74.25;100487.53;4920894;29;20046;-85
2022/04/18 08:33:49;;;;;;;6.13;4.68;;;;;;;4.93;74.86;100464.97;4923060;28;20512;-83
2022/04/18 08:36:15;;;;;;;6.68;4.40;;;;;;;5.12;74.86;100491.75;4940467;29;20046;-86
2022/04/18 08:38:41;;;;;;;7.55;5.30;;;;;;;5.14;75.23;100494.31;4923195;29;20035;-84
2022/04/18 08:41:09;;;;;;;6.63;4.43;;;;;;;5.00;73.96;100487.47;4935596;29;20409;-85
2022/04/18 08:43:35;;;;;;;8.43;4.63;;;;;;;5.22;74.81;100503.34;4925382;28;20524;-86
2022/04/18 08:46:05;;;;;;;6.95;4.68;;;;;;;5.24;73.92;100504.06;4949396;29;20036;-84
2022/04/18 08:54:02;;;;;;;8.77;5.60;;;;;;;5.24;73.19;100485.41;4935914;28;20049;-84
2022/04/18 08:56:28;;;;;;;6.90;4.93;;;;;;;5.49;74.54;100509.94;4924352;29;20048;-84
2022/04/18 08:58:57;;;;;;;7.20;4.80;;;;;;;5.52;73.59;100504.34;4956235;28;20850;-85
2022/04/18 09:01:25;;;;;;;7.00;4.93;;;;;;;5.63;73.32;100522.94;4934399;29;20138;-83
2022/04/18 09:03:50;;;;;;;6.38;4.35;;;;;;;5.49;72.88;100513.44;4929425;28;20039;-83
2022/04/18 09:06:16;;;;;;;7.23;4.73;;;;;;;5.52;73.63;100533.69;4912280;29;20062;-83
2022/04/18 09:08:52;;;;;;;8.02;4.95;;;;;;;5.45;74.59;100524.50;4928741;28;20554;-83
2022/04/18 09:11:45;;;;;;;6.55;4.68;;;;;;;5.63;72.95;100517.59;4939460;29;20039;-83
2022/04/18 09:14:12;;;;;;;7.57;4.45;;;;;;;5.51;72.74;100518.66;4960700;28;20046;-85
2022/04/18 09:16:39;;;;;;;8.25;5.22;;;;;;;5.61;74.29;100524.03;4936050;29;20512;-83
2022/04/18 09:19:12;;;;;;;6.93;4.68;;;;;;;5.45;73.37;100514.69;4924648;29;20039;-82
2022/04/18 09:21:59;;;;;;;10.30;6.03;;;;;;;5.83;75.62;100528.34;4910022;29;20142;-87
2022/04/18 09:24:37;;;;;;;6.70;5.18;;;;;;;5.86;73.45;100525.44;4963233;28;20114;-82
2022/04/18 09:27:24;;;;;;;9.10;4.90;;;;;;;5.91;72.64;100525.88;4920096;29;20424;-85
2022/04/18 09:30:09;;;;;;;7.68;5.43;;;;;;;6.09;72.59;100532.31;4941742;28;20058;-84
2022/04/18 09:32:40;;;;;;;7.57;5.57;;;;;;;6.21;73.04;100532.22;4928099;28;20044;-87
2022/04/18 09:35:08;;;;;;;8.77;5.82;;;;;;;6.00;71.93;100513.59;4926929;29;20118;-84
2022/04/18 09:37:36;;;;;;;7.45;5.63;;;;;;;6.11;71.43;100521.47;4946206;28;20034;-84
2022/04/18 09:40:05;;;;;;;6.65;4.85;;;;;;;6.12;71.90;100534.69;4938908;29;20118;-84
2022/04/18 09:42:30;;;;;;;7.50;5.05;;;;;;;6.38;70.41;100544.91;4936948;28;20050;-83
2022/04/18 09:44:56;;;;;;;7.32;5.50;;;;;;;6.26;72.42;100536.16;4938138;29;20134;-84
2022/04/18 09:47:22;;;;;;;19.50;14.80;;;;;;;6.28;72.09;100539.53;4936773;28;20043;-79
2022/04/18 09:49:56;;;;;;;8.88;5.50;;;;;;;6.17;72.51;100526.28;4936277;28;20294;-82
2022/04/18 09:52:23;;;;;;;7.05;5.00;;;;;;;6.27;72.58;100521.81;4947031;28;20061;-84
2022/04/18 09:54:58;;;;;;;7.13;5.15;;;;;;;6.54;71.72;100549.72;4957342;28;20031;-82
2022/04/18 09:57:28;;;;;;;6.35;4.50;;;;;;;6.59;71.23;100551.97;4927974;28;20436;-85
2022/04/18 09:59:59;;;;;;;6.50;4.70;;;;;;;6.38;70.49;100538.72;4911735;29;20054;-83
2022/04/18 10:02:29;;;;;;;5.97;4.53;;;;;;;6.42;71.56;100562.34;4919346;28;20065;-82
2022/04/18 10:04:54;;;;;;;8.27;4.90;;;;;;;6.29;71.57;100559.06;4917282;29;20039;-80
2022/04/18 10:07:20;;;;;;;7.10;4.50;;;;;;;6.11;72.08;100549.03;4949153;28;20050;-82
2022/04/18 10:09:48;;;;;;;7.60;5.40;;;;;;;6.27;72.91;100569.88;4925315;28;20133;-84
2022/04/18 10:12:15;;;;;;;9.77;6.43;;;;;;;6.16;73.62;100578.00;4965975;28;20047;-85
2022/04/18 10:14:46;;;;;;;10.00;7.20;;;;;;;6.04;73.06;100569.25;4920370;28;20035;-86
2022/04/18 10:17:16;;;;;;;6.80;4.72;;;;;;;5.90;72.38;100561.56;4923818;28;20038;-84
2022/04/18 10:20:07;;;;;;;6.30;4.60;;;;;;;5.97;72.18;100570.75;4934110;28;20416;-86
2022/04/18 10:23:16;;;;;;;5.47;3.80;;;;;;;5.85;72.53;100555.75;4875094;29;20107;-83
2022/04/18 10:26:14;;;;;;;11.32;6.30;;;;;;;6.12;74.16;100587.25;4927861;29;20028;-85
2022/04/18 10:28:46;;;;;;;7.97;6.10;;;;;;;6.29;74.01;100575.06;4960608;28;20043;-88
2022/04/18 10:31:21;;;;;;;6.32;4.00;;;;;;;6.43;70.28;100584.53;4935917;29;20043;-84
2022/04/18 10:33:47;;;;;;;6.22;4.50;;;;;;;6.43;70.79;100590.72;4909087;29;20048;-87
2022/04/18 10:36:26;;;;;;;5.20;3.90;;;;;;;6.22;69.66;100592.63;4917868;29;20174;-88
2022/04/18 10:38:56;;;;;;;5.40;3.30;;;;;;;6.34;69.10;100597.75;4885730;29;20446;-83
2022/04/18 10:41:45;;;;;;;5.47;3.75;;;;;;;6.44;70.71;100587.09;4947013;28;20039;-85
2022/04/18 10:44:11;;;;;;;8.48;4.60;;;;;;;6.49;70.80;100606.22;4943411;28;20106;-85
2022/04/18 10:47:00;;;;;;;5.90;4.25;;;;;;;6.49;69.17;100589.34;4960717;28;20518;-85
2022/04/18 10:50:08;;;;;;;7.10;4.10;;;;;;;6.55;69.16;100583.44;4931900;28;20046;-86
2022/04/18 10:52:34;;;;;;;8.40;3.95;;;;;;;6.31;68.75;100573.13;4946778;28;20040;-86
2022/04/18 10:55:03;;;;;;;8.98;4.47;;;;;;;6.32;68.66;100602.38;4949722;28;20094;-87
2022/04/18 10:57:31;;;;;;;6.40;4.38;;;;;;;6.44;69.74;100600.44;4916791;29;20051;-86
2022/04/18 10:59:57;;;;;;;5.82;3.50;;;;;;;6.30;68.54;100600.81;4905550;28;20043;-87
2022/04/18 11:02:43;;;;;;;5.07;3.97;;;;;;;6.14;69.93;100609.31;4920299;29;20506;-86
2022/04/18 11:05:08;;;;;;;;;;;;;;;6.06;72.37;100610.00;4935365;29;20070;-85
2022/04/18 11:07:41;;;;;;;6.35;4.75;;;;;;;5.89;72.88;100597.22;4947895;28;20382;-88
2022/04/18 11:10:22;;;;;;;7.30;4.95;;;;;;;6.09;71.97;100609.72;4926908;29;20113;-87
2022/04/18 11:12:53;;;;;;;6.68;4.68;;;;;;;5.84;72.54;100578.09;4909254;29;20046;-87
2022/04/18 11:15:23;;;;;;;7.38;4.75;;;;;;;5.58;73.54;100573.16;4921969;28;20039;-87
2022/04/18 11:17:51;;;;;;;5.97;4.13;;;;;;;5.74;71.38;100609.22;4931976;29;20039;-89
2022/04/18 11:20:33;;;;;;;6.68;5.05;;;;;;;5.46;73.43;100599.06;4930552;28;20423;-89
2022/04/18 11:23:21;;;;;;;8.63;5.25;;;;;;;5.38;74.80;100592.66;4923013;29;20078;-89
2022/04/18 11:26:21;;;;;;;9.45;5.32;;;;;;;5.53;73.98;100603.88;4930717;28;20053;-86
2022/04/18 11:28:49;;;;;;;11.10;5.70;;;;;;;5.61;75.10;100593.41;4929080;29;20420;-87
2022/04/18 11:31:30;;;;;;;7.13;5.03;;;;;;;5.63;73.89;100602.94;4903826;29;20055;-89
2022/04/18 11:33:59;;;;;;;7.38;5.10;;;;;;;5.77;73.60;100592.94;4928953;29;20780;-88
2022/04/18 11:36:25;;;;;;;6.60;4.95;;;;;;;6.05;72.52;100597.59;4935574;29;20121;-89
2022/04/18 11:39:04;;;;;;;7.00;5.00;;;;;;;6.22;72.80;100608.63;4898294;29;20429;-87
2022/04/18 11:41:35;;;;;;;6.60;5.25;;;;;;;6.42;70.83;100604.22;4933424;28;20047;-88
2022/04/18 11:44:05;;;;;;;6.88;4.88;;;;;;;6.65;69.24;100602.16;4928958;29;20039;-86
2022/04/18 11:46:31;;;;;;;7.28;5.35;;;;;;;6.67;70.20;100600.19;4945152;29;20027;-86
2022/04/18 11:48:56;;;;;;;8.03;5.63;;;;;;;6.57;70.58;100602.03;4940434;29;21890;-86
2022/04/18 11:52:02;;;;;;;12.07;7.27;;;;;;;6.81;71.20;100626.53;4944385;28;22274;-88
2022/04/18 11:54:30;;;;;;;10.00;6.80;;;;;;;6.69;70.53;100622.28;4940442;28;20783;-90
2022/04/18 11:57:07;;;;;;;7.20;5.03;;;;;;;6.57;70.53;100602.03;4937578;29;20051;-88
2022/04/18 11:59:43;;;;;;;10.10;5.50;;;;;;;6.80;69.37;100603.47;4948940;28;20047;-87
2022/04/18 12:07:40;;;;;;;8.48;6.43;;;;;;;7.82;69.08;100601.22;4952703;28;20145;-83